高雄國際航空站 - 塔台/地面席

METAR RCKH 120330Z 26006KT 210V300 9999 FEW016 28/15 Q1016 NOSIG RMK A3002=

站台狀態:Online
最後更新:2019-11-12 11:45:02